createdAt,value
2019-03-16T00:01:37.365Z,18.17
2019-03-16T00:04:09.988Z,20.68
2019-03-16T00:06:42.618Z,12.85
2019-03-16T00:09:14.948Z,13.08
2019-03-16T00:11:47.465Z,19.02
2019-03-16T00:14:20.008Z,17.52
2019-03-16T00:16:52.728Z,15.48
2019-03-16T00:19:25.029Z,13.98
2019-03-16T00:21:57.498Z,18.35
2019-03-16T00:24:30.160Z,16.67
2019-03-16T00:27:02.939Z,14.13
2019-03-16T00:29:35.445Z,14.55
2019-03-16T00:32:13.288Z,16.23
2019-03-16T00:34:42.258Z,13.53
2019-03-16T00:37:14.658Z,15.85
2019-03-16T00:39:47.038Z,14.87
2019-03-16T00:42:19.637Z,16.60
2019-03-16T00:44:52.018Z,14.28
2019-03-16T00:47:25.147Z,15.63
2019-03-16T00:49:57.528Z,17.87
2019-03-16T00:52:29.976Z,21.27
2019-03-16T00:55:02.368Z,21.90
2019-03-16T00:57:34.817Z,15.60
2019-03-16T01:00:08.538Z,25.45
2019-03-16T01:02:40.998Z,13.60
2019-03-16T01:05:13.578Z,18.25
2019-03-16T01:07:46.098Z,13.20
2019-03-16T01:10:18.598Z,23.67
2019-03-16T01:12:51.029Z,14.43
2019-03-16T01:15:23.447Z,20.68
2019-03-16T01:17:55.898Z,16.35
2019-03-16T01:20:28.267Z,14.15
2019-03-16T01:25:31.728Z,15.55
2019-03-16T01:28:04.258Z,17.62
2019-03-16T01:30:36.738Z,11.63
2019-03-16T01:33:09.248Z,14.73
2019-03-16T01:35:41.626Z,10.23
2019-03-16T01:38:13.958Z,13.58
2019-03-16T01:40:46.539Z,12.82
2019-03-16T01:43:18.888Z,12.55
2019-03-16T01:45:51.497Z,13.50
2019-03-16T01:48:24.207Z,13.38
2019-03-16T01:50:56.748Z,15.98
2019-03-16T01:53:29.072Z,14.33
2019-03-16T01:56:02.669Z,13.60
2019-03-16T01:58:35.010Z,21.05
2019-03-16T02:01:07.798Z,13.72
2019-03-16T02:03:40.169Z,21.02
2019-03-16T02:08:43.728Z,19.42
2019-03-16T02:11:16.178Z,19.48
2019-03-16T02:13:49.488Z,20.75
2019-03-16T02:16:21.897Z,19.27
2019-03-16T02:18:54.348Z,30.00
2019-03-16T02:21:26.762Z,26.40
2019-03-16T02:23:59.368Z,24.05
2019-03-16T02:26:32.098Z,27.65
2019-03-16T02:29:04.648Z,24.35
2019-03-16T02:31:37.158Z,21.60
2019-03-16T02:34:09.678Z,22.15
2019-03-16T02:36:51.871Z,20.88
2019-03-16T02:39:24.291Z,22.20
2019-03-16T02:41:56.580Z,22.95
2019-03-16T02:44:28.980Z,22.67
2019-03-16T02:47:01.354Z,22.05
2019-03-16T02:49:33.769Z,21.62
2019-03-16T02:52:06.174Z,29.82
2019-03-16T02:54:38.708Z,16.85
2019-03-16T02:57:11.539Z,34.20
2019-03-16T02:59:43.957Z,22.27
2019-03-16T03:02:16.482Z,25.48
2019-03-16T03:04:48.858Z,17.20
2019-03-16T03:07:21.282Z,23.12
2019-03-16T03:09:53.732Z,21.70
2019-03-16T03:12:26.149Z,23.80
2019-03-16T03:14:58.577Z,28.35
2019-03-16T03:17:31.059Z,20.97
2019-03-16T03:20:03.629Z,33.30
2019-03-16T03:22:36.101Z,23.77
2019-03-16T03:25:08.458Z,28.12
2019-03-16T03:27:40.950Z,24.57
2019-03-16T03:30:13.686Z,25.08
2019-03-16T03:32:46.181Z,20.30
2019-03-16T03:35:18.686Z,28.73
2019-03-16T03:40:22.369Z,36.35
2019-03-16T03:42:54.657Z,35.48
2019-03-16T03:45:27.118Z,37.55
2019-03-16T03:47:59.609Z,37.20
2019-03-16T03:50:32.528Z,38.02
2019-03-16T03:53:04.940Z,27.22
2019-03-16T03:55:37.392Z,36.80
2019-03-16T03:58:09.898Z,29.42
2019-03-16T04:00:42.414Z,29.37
2019-03-16T04:03:14.838Z,22.98
2019-03-16T04:05:47.154Z,29.60
2019-03-16T04:08:19.682Z,29.48
2019-03-16T04:10:52.301Z,28.47
2019-03-16T04:13:24.701Z,27.05
2019-03-16T04:15:56.889Z,31.10
2019-03-16T04:18:29.269Z,27.60
2019-03-16T04:21:01.861Z,31.05
2019-03-16T04:23:34.270Z,21.90
2019-03-16T04:28:38.089Z,23.27
2019-03-16T04:31:10.439Z,25.95
2019-03-16T04:33:42.938Z,23.70
2019-03-16T04:36:15.497Z,15.13
2019-03-16T04:38:47.859Z,30.25
2019-03-16T04:41:20.778Z,19.57
2019-03-16T04:43:53.058Z,19.15
2019-03-16T04:46:25.468Z,19.60
2019-03-16T04:48:57.947Z,29.12
2019-03-16T04:51:30.788Z,23.90
2019-03-16T04:54:03.362Z,30.10
2019-03-16T04:56:35.778Z,19.75
2019-03-16T04:59:08.178Z,20.10
2019-03-16T05:01:40.628Z,22.52
2019-03-16T05:04:13.958Z,16.93
2019-03-16T05:06:46.347Z,26.20
2019-03-16T05:09:18.737Z,23.02
2019-03-16T05:11:51.177Z,28.10
2019-03-16T05:14:23.788Z,23.40
2019-03-16T05:16:56.228Z,31.97
2019-03-16T05:19:28.591Z,27.35
2019-03-16T05:22:01.081Z,26.20
2019-03-16T05:24:33.537Z,22.70
2019-03-16T05:27:06.054Z,32.70
2019-03-16T05:29:38.532Z,20.62
2019-03-16T05:32:11.138Z,20.85
2019-03-16T05:34:55.831Z,27.65
2019-03-16T05:37:18.138Z,22.05
2019-03-16T05:39:50.490Z,23.07
2019-03-16T05:42:23.018Z,23.07
2019-03-16T05:44:55.413Z,28.38
2019-03-16T05:47:28.428Z,23.45
2019-03-16T05:50:00.737Z,29.80
2019-03-16T05:52:33.258Z,30.12
2019-03-16T05:55:05.528Z,33.85
2019-03-16T05:57:38.030Z,25.40
2019-03-16T06:00:11.178Z,23.60
2019-03-16T06:02:44.748Z,26.07
2019-03-16T06:05:17.200Z,41.45
2019-03-16T06:07:49.999Z,20.32
2019-03-16T06:10:22.588Z,38.92
2019-03-16T06:12:55.049Z,21.85
2019-03-16T06:15:27.498Z,28.45
2019-03-16T06:17:59.878Z,23.27
2019-03-16T06:20:32.297Z,28.60
2019-03-16T06:23:05.008Z,34.10
2019-03-16T06:25:37.562Z,22.07
2019-03-16T06:28:10.377Z,22.32
2019-03-16T06:30:43.089Z,23.32
2019-03-16T06:33:15.699Z,22.37
2019-03-16T06:35:48.357Z,19.65
2019-03-16T06:38:20.927Z,24.98
2019-03-16T06:40:53.499Z,24.00
2019-03-16T06:43:26.057Z,19.77
2019-03-16T06:45:58.488Z,27.17
2019-03-16T06:48:31.095Z,22.98
2019-03-16T06:51:03.627Z,29.50
2019-03-16T06:53:36.461Z,19.87
2019-03-16T06:56:08.988Z,25.48
2019-03-16T06:58:41.736Z,26.25
2019-03-16T07:01:14.128Z,23.77
2019-03-16T07:03:46.757Z,20.25
2019-03-16T07:06:19.187Z,21.95
2019-03-16T07:08:51.602Z,33.08
2019-03-16T07:11:24.013Z,25.15
2019-03-16T07:13:56.538Z,37.33
2019-03-16T07:16:29.128Z,21.65
2019-03-16T07:19:01.508Z,26.55
2019-03-16T07:21:34.468Z,24.63
2019-03-16T07:24:07.138Z,24.87
2019-03-16T07:26:39.453Z,32.45
2019-03-16T07:29:11.861Z,27.75
2019-03-16T07:31:45.448Z,18.60
2019-03-16T07:34:18.000Z,24.02
2019-03-16T07:36:51.278Z,28.50
2019-03-16T07:39:23.598Z,20.00
2019-03-16T07:41:55.968Z,22.00
2019-03-16T07:44:28.448Z,22.87
2019-03-16T07:47:01.090Z,23.92
2019-03-16T07:49:33.527Z,23.07
2019-03-16T07:52:05.963Z,17.85
2019-03-16T07:54:38.568Z,18.87
2019-03-16T07:57:11.008Z,16.55
2019-03-16T07:59:43.511Z,23.42
2019-03-16T08:02:15.797Z,18.27
2019-03-16T08:07:19.498Z,17.70
2019-03-16T08:09:51.999Z,23.18
2019-03-16T08:12:24.517Z,22.85
2019-03-16T08:14:56.858Z,23.75
2019-03-16T08:17:30.453Z,20.57
2019-03-16T08:20:03.403Z,17.32
2019-03-16T08:22:35.849Z,30.60
2019-03-16T08:25:08.539Z,25.75
2019-03-16T08:27:53.635Z,16.55
2019-03-16T08:30:15.418Z,24.72
2019-03-16T08:32:47.738Z,29.15
2019-03-16T08:35:20.550Z,22.67
2019-03-16T08:37:52.888Z,24.10
2019-03-16T08:40:25.511Z,27.40
2019-03-16T08:42:58.108Z,34.45
2019-03-16T08:45:30.987Z,29.40
2019-03-16T08:48:04.648Z,28.65
2019-03-16T08:50:38.296Z,22.05
2019-03-16T08:53:10.652Z,22.48
2019-03-16T08:55:43.015Z,20.77
2019-03-16T08:58:16.753Z,29.37
2019-03-16T09:00:49.370Z,19.90
2019-03-16T09:03:21.868Z,20.82
2019-03-16T09:05:54.356Z,20.02
2019-03-16T09:08:26.882Z,25.20
2019-03-16T09:10:59.608Z,26.60
2019-03-16T09:13:32.338Z,20.82
2019-03-16T09:16:04.998Z,23.05
2019-03-16T09:18:37.688Z,16.32
2019-03-16T09:21:10.948Z,22.00
2019-03-16T09:23:43.218Z,14.75
2019-03-16T09:26:15.668Z,16.25
2019-03-16T09:28:59.627Z,18.02
2019-03-16T09:31:22.420Z,17.23
2019-03-16T09:33:54.898Z,28.05
2019-03-16T09:36:27.528Z,118.20
2019-03-16T09:39:00.047Z,14.90
2019-03-16T09:41:32.628Z,24.98
2019-03-16T09:44:05.518Z,16.67
2019-03-16T09:46:38.087Z,16.20
2019-03-16T09:49:10.997Z,22.07
2019-03-16T09:51:43.986Z,18.73
2019-03-16T09:54:16.546Z,28.87
2019-03-16T09:57:00.633Z,15.83
2019-03-16T09:59:25.608Z,18.02
2019-03-16T10:01:58.777Z,21.12
2019-03-16T10:04:31.407Z,19.48
2019-03-16T10:07:04.252Z,25.45
2019-03-16T10:09:36.650Z,21.07
2019-03-16T10:12:09.436Z,17.95
2019-03-16T10:14:42.028Z,17.35
2019-03-16T10:17:14.748Z,16.80
2019-03-16T10:19:47.328Z,17.95
2019-03-16T10:22:20.078Z,19.60
2019-03-16T10:24:53.119Z,15.60
2019-03-16T10:27:26.299Z,19.60
2019-03-16T10:29:58.838Z,20.25
2019-03-16T10:32:31.338Z,15.40
2019-03-16T10:35:03.808Z,14.50
2019-03-16T10:37:36.243Z,13.78
2019-03-16T10:40:08.747Z,14.15
2019-03-16T10:42:42.115Z,14.70
2019-03-16T10:45:14.819Z,14.10
2019-03-16T10:47:47.453Z,19.35
2019-03-16T10:50:20.986Z,17.55
2019-03-16T10:52:53.638Z,17.55
2019-03-16T10:55:26.388Z,20.90
2019-03-16T10:58:00.528Z,18.65
2019-03-16T11:00:33.179Z,29.07
2019-03-16T11:03:05.729Z,23.38
2019-03-16T11:05:38.366Z,24.15
2019-03-16T11:08:11.036Z,35.28
2019-03-16T11:10:43.658Z,18.75
2019-03-16T11:13:16.398Z,12.82
2019-03-16T11:15:49.298Z,16.60
2019-03-16T11:18:24.047Z,19.10
2019-03-16T11:20:57.628Z,21.30
2019-03-16T11:23:30.319Z,20.80
2019-03-16T11:26:02.969Z,18.30
2019-03-16T11:28:35.588Z,17.48
2019-03-16T11:31:08.030Z,19.32
2019-03-16T11:33:40.778Z,14.55
2019-03-16T11:36:13.358Z,13.55
2019-03-16T11:38:46.128Z,10.35
2019-03-16T11:41:18.714Z,13.15
2019-03-16T11:43:51.357Z,11.95
2019-03-16T11:46:23.888Z,16.37
2019-03-16T11:48:56.567Z,9.03
2019-03-16T11:51:29.028Z,15.10
2019-03-16T11:54:01.648Z,9.88
2019-03-16T11:56:34.224Z,8.48
2019-03-16T11:59:06.867Z,12.05
2019-03-16T12:01:39.568Z,10.15
2019-03-16T12:04:12.127Z,11.15
2019-03-16T12:06:44.590Z,11.00
2019-03-16T12:09:17.163Z,9.78
2019-03-16T12:11:49.758Z,10.40
2019-03-16T12:14:22.178Z,11.70
2019-03-16T12:16:54.818Z,9.70
2019-03-16T12:19:27.257Z,11.60
2019-03-16T12:21:59.659Z,12.07
2019-03-16T12:24:32.940Z,14.23
2019-03-16T12:27:05.538Z,11.93
2019-03-16T12:29:37.961Z,9.23
2019-03-16T12:32:11.210Z,11.63
2019-03-16T12:34:43.852Z,10.70
2019-03-16T12:37:16.438Z,11.00
2019-03-16T12:39:48.979Z,9.65
2019-03-16T12:42:22.568Z,9.60
2019-03-16T12:44:55.150Z,9.63
2019-03-16T12:47:27.878Z,11.48
2019-03-16T12:50:00.459Z,11.50
2019-03-16T12:52:33.118Z,12.78
2019-03-16T12:55:08.318Z,10.78
2019-03-16T12:57:40.880Z,10.93
2019-03-16T13:00:19.228Z,12.37
2019-03-16T13:02:52.391Z,11.80
2019-03-16T13:05:24.878Z,15.40
2019-03-16T13:07:57.518Z,11.28
2019-03-16T13:10:30.178Z,13.05
2019-03-16T13:13:02.699Z,9.78
2019-03-16T13:15:35.309Z,12.98
2019-03-16T13:18:08.266Z,9.70
2019-03-16T13:20:42.428Z,7.53
2019-03-16T13:23:15.092Z,9.38
2019-03-16T13:25:47.488Z,12.55
2019-03-16T13:28:22.173Z,9.73
2019-03-16T13:30:54.806Z,10.13
2019-03-16T13:33:27.398Z,11.35
2019-03-16T13:36:01.168Z,9.08
2019-03-16T13:38:34.151Z,13.05
2019-03-16T13:41:09.118Z,11.03
2019-03-16T13:43:42.476Z,10.55
2019-03-16T13:46:14.839Z,9.43
2019-03-16T13:48:47.348Z,10.85
2019-03-16T13:51:19.948Z,9.70
2019-03-16T13:53:52.684Z,7.47
2019-03-16T13:56:25.061Z,10.03
2019-03-16T13:58:59.928Z,15.08
2019-03-16T14:01:32.610Z,8.93
2019-03-16T14:04:06.483Z,12.35
2019-03-16T14:06:38.929Z,6.75
2019-03-16T14:09:11.720Z,11.03
2019-03-16T14:11:44.037Z,9.68
2019-03-16T14:14:17.799Z,8.23
2019-03-16T14:16:50.427Z,11.30
2019-03-16T14:19:22.930Z,9.95
2019-03-16T14:21:55.427Z,10.70
2019-03-16T14:24:28.248Z,11.48
2019-03-16T14:27:00.866Z,9.13
2019-03-16T14:29:33.498Z,9.83
2019-03-16T14:32:06.587Z,7.45
2019-03-16T14:34:39.147Z,8.85
2019-03-16T14:37:13.958Z,8.45
2019-03-16T14:39:51.167Z,11.20
2019-03-16T14:42:26.592Z,11.55
2019-03-16T14:45:06.818Z,16.20
2019-03-16T14:47:43.680Z,12.13
2019-03-16T14:50:17.881Z,14.00
2019-03-16T14:52:50.828Z,18.32
2019-03-16T14:55:23.428Z,14.53
2019-03-16T14:57:56.018Z,19.95
2019-03-16T15:00:38.288Z,15.10
2019-03-16T15:03:04.040Z,19.02
2019-03-16T15:05:36.668Z,11.65
2019-03-16T15:08:09.391Z,13.08
2019-03-16T15:10:42.621Z,11.55
2019-03-16T15:13:15.438Z,12.80
2019-03-16T15:15:48.848Z,14.47
2019-03-16T15:18:22.248Z,15.43
2019-03-16T15:20:54.809Z,14.07
2019-03-16T15:23:27.358Z,10.03
2019-03-16T15:25:59.909Z,10.88
2019-03-16T15:28:32.488Z,11.80
2019-03-16T15:31:05.168Z,11.65
2019-03-16T15:33:37.674Z,12.95
2019-03-16T15:36:10.189Z,15.03
2019-03-16T15:38:43.058Z,11.95
2019-03-16T15:41:15.998Z,13.45
2019-03-16T15:43:48.758Z,8.85
2019-03-16T15:46:22.980Z,12.05
2019-03-16T15:48:55.435Z,12.63
2019-03-16T15:51:27.929Z,15.72
2019-03-16T15:54:00.548Z,12.25
2019-03-16T15:56:33.058Z,14.35
2019-03-16T15:59:05.478Z,11.70
2019-03-16T16:01:40.599Z,13.10
2019-03-16T16:04:12.408Z,13.05
2019-03-16T16:06:45.079Z,10.18
2019-03-16T16:09:17.418Z,12.70
2019-03-16T16:11:49.868Z,13.93
2019-03-16T16:14:23.888Z,11.70
2019-03-16T16:16:56.346Z,13.83
2019-03-16T16:19:28.799Z,8.25
2019-03-16T16:22:01.218Z,13.50
2019-03-16T16:24:33.708Z,12.30
2019-03-16T16:27:06.418Z,14.60
2019-03-16T16:29:38.818Z,13.05
2019-03-16T16:32:13.755Z,12.40
2019-03-16T16:34:46.258Z,15.95
2019-03-16T16:37:19.738Z,13.85
2019-03-16T16:39:52.368Z,15.75
2019-03-16T16:42:24.968Z,16.77
2019-03-16T16:44:57.547Z,13.68
2019-03-16T16:47:29.879Z,18.70
2019-03-16T16:50:02.489Z,14.58
2019-03-16T16:52:35.025Z,14.85
2019-03-16T16:55:07.648Z,11.15
2019-03-16T16:57:42.198Z,12.68
2019-03-16T17:00:16.418Z,10.03
2019-03-16T17:02:48.918Z,8.55
2019-03-16T17:05:21.491Z,9.05
2019-03-16T17:07:54.176Z,14.65
2019-03-16T17:10:26.688Z,12.00
2019-03-16T17:12:59.248Z,11.40
2019-03-16T17:15:31.598Z,14.65
2019-03-16T17:18:03.978Z,15.80
2019-03-16T17:20:36.574Z,17.82
2019-03-16T17:23:09.104Z,17.48
2019-03-16T17:25:41.717Z,16.07
2019-03-16T17:28:15.296Z,13.05
2019-03-16T17:30:48.060Z,18.07
2019-03-16T17:33:20.575Z,13.90
2019-03-16T17:35:53.118Z,16.15
2019-03-16T17:38:25.569Z,12.95
2019-03-16T17:40:58.210Z,12.93
2019-03-16T17:43:30.468Z,16.50
2019-03-16T17:46:02.947Z,15.90
2019-03-16T17:48:35.578Z,16.32
2019-03-16T17:51:08.238Z,16.05
2019-03-16T17:53:40.819Z,17.65
2019-03-16T17:56:13.340Z,15.08
2019-03-16T17:58:45.809Z,15.18
2019-03-16T18:01:18.289Z,18.35
2019-03-16T18:03:51.438Z,16.00
2019-03-16T18:06:23.902Z,19.00
2019-03-16T18:08:56.638Z,14.05
2019-03-16T18:11:29.100Z,19.73
2019-03-16T18:14:01.988Z,19.05
2019-03-16T18:16:34.559Z,25.52
2019-03-16T18:19:07.068Z,22.95
2019-03-16T18:21:39.888Z,27.73
2019-03-16T18:24:12.500Z,25.40
2019-03-16T18:26:44.946Z,22.05
2019-03-16T18:29:17.467Z,24.18
2019-03-16T18:31:49.889Z,21.95
2019-03-16T18:36:53.428Z,17.17
2019-03-16T18:39:25.868Z,13.28
2019-03-16T18:42:04.348Z,15.60
2019-03-16T18:44:41.492Z,18.25
2019-03-16T18:47:15.731Z,17.37
2019-03-16T18:49:48.158Z,15.80
2019-03-16T18:52:20.588Z,19.62
2019-03-16T18:54:52.838Z,23.83
2019-03-16T18:57:25.510Z,29.48
2019-03-16T18:59:57.987Z,28.30
2019-03-16T19:02:31.038Z,24.87
2019-03-16T19:05:03.676Z,21.57
2019-03-16T19:07:36.139Z,19.30
2019-03-16T19:10:09.738Z,23.00
2019-03-16T19:12:42.588Z,23.27
2019-03-16T19:15:15.540Z,28.92
2019-03-16T19:17:58.669Z,21.62
2019-03-16T19:20:22.799Z,34.20
2019-03-16T19:22:55.288Z,30.48
2019-03-16T19:25:27.857Z,26.75
2019-03-16T19:28:00.878Z,23.40
2019-03-16T19:30:34.628Z,27.67
2019-03-16T19:33:07.258Z,31.07
2019-03-16T19:35:39.858Z,34.00
2019-03-16T19:38:13.381Z,30.48
2019-03-16T19:40:46.058Z,42.85
2019-03-16T19:43:18.768Z,43.30
2019-03-16T19:45:51.368Z,47.35
2019-03-16T19:48:24.398Z,47.23
2019-03-16T19:50:57.688Z,46.95
2019-03-16T19:53:30.318Z,39.92
2019-03-16T19:56:03.089Z,29.02
2019-03-16T19:58:35.808Z,29.92
2019-03-16T20:01:08.758Z,30.32
2019-03-16T20:03:42.302Z,30.20
2019-03-16T20:06:25.235Z,33.25
2019-03-16T20:08:49.308Z,27.15
2019-03-16T20:11:21.758Z,23.85
2019-03-16T20:13:54.299Z,22.22
2019-03-16T20:16:26.768Z,25.92
2019-03-16T20:18:59.479Z,25.75
2019-03-16T20:21:32.068Z,28.17
2019-03-16T20:24:04.763Z,25.75
2019-03-16T20:26:37.268Z,31.52
2019-03-16T20:29:09.858Z,23.05
2019-03-16T20:31:46.758Z,25.62
2019-03-16T20:34:16.618Z,28.23
2019-03-16T20:36:49.058Z,25.45
2019-03-16T20:39:21.639Z,32.30
2019-03-16T20:41:54.798Z,32.30
2019-03-16T20:44:27.932Z,39.78
2019-03-16T20:47:00.648Z,39.98
2019-03-16T20:49:33.168Z,45.52
2019-03-16T20:52:05.867Z,51.25
2019-03-16T20:54:38.527Z,64.90
2019-03-16T20:57:11.042Z,60.03
2019-03-16T20:59:45.272Z,49.90
2019-03-16T21:02:17.798Z,38.00
2019-03-16T21:04:50.371Z,51.77
2019-03-16T21:07:22.778Z,34.88
2019-03-16T21:09:55.307Z,36.20
2019-03-16T21:12:27.649Z,34.43
2019-03-16T21:14:59.968Z,20.37
2019-03-16T21:17:32.808Z,20.88
2019-03-16T21:20:06.006Z,22.45
2019-03-16T21:22:39.046Z,18.05
2019-03-16T21:25:13.103Z,14.60
2019-03-16T21:27:47.018Z,21.77
2019-03-16T21:30:19.657Z,18.35
2019-03-16T21:32:52.322Z,15.40
2019-03-16T21:35:24.829Z,16.73
2019-03-16T21:37:57.151Z,19.62
2019-03-16T21:40:30.299Z,22.50
2019-03-16T21:43:03.367Z,22.45
2019-03-16T21:45:36.483Z,17.95
2019-03-16T21:48:26.921Z,17.70
2019-03-16T21:51:02.888Z,19.62
2019-03-16T21:53:36.646Z,20.77
2019-03-16T21:56:10.039Z,25.25
2019-03-16T21:59:01.899Z,26.25
2019-03-16T22:01:34.397Z,17.25
2019-03-16T22:04:07.206Z,17.92
2019-03-16T22:06:40.129Z,18.10
2019-03-16T22:09:12.682Z,19.23
2019-03-16T22:11:45.318Z,19.35
2019-03-16T22:14:17.728Z,18.98
2019-03-16T22:16:50.009Z,19.37
2019-03-16T22:19:22.538Z,16.00
2019-03-16T22:21:58.328Z,19.42
2019-03-16T22:24:31.992Z,18.37
2019-03-16T22:27:04.618Z,16.20
2019-03-16T22:29:37.148Z,13.55
2019-03-16T22:32:10.849Z,15.85
2019-03-16T22:34:43.540Z,12.45
2019-03-16T22:37:16.298Z,15.68
2019-03-16T22:39:51.358Z,10.98
2019-03-16T22:42:23.728Z,13.38
2019-03-16T22:44:56.585Z,17.10
2019-03-16T22:47:30.939Z,13.83
2019-03-16T22:50:03.308Z,11.65
2019-03-16T22:52:35.595Z,14.00
2019-03-16T22:55:08.408Z,12.68
2019-03-16T22:57:43.182Z,16.35
2019-03-16T23:00:16.108Z,13.50
2019-03-16T23:02:50.050Z,13.00
2019-03-16T23:05:22.418Z,13.40
2019-03-16T23:07:55.838Z,11.43
2019-03-16T23:10:28.677Z,13.13
2019-03-16T23:13:13.728Z,10.05
2019-03-16T23:15:46.652Z,11.95
2019-03-16T23:18:19.428Z,14.98
2019-03-16T23:20:51.977Z,17.17
2019-03-16T23:23:34.328Z,12.75
2019-03-16T23:26:08.967Z,10.03
2019-03-16T23:29:05.606Z,19.05
2019-03-16T23:35:49.268Z,21.93
2019-03-16T23:38:23.490Z,26.70
2019-03-16T23:41:15.988Z,23.35
2019-03-16T23:44:07.538Z,22.98
2019-03-16T23:46:40.000Z,20.32
2019-03-16T23:49:13.368Z,22.17
2019-03-16T23:51:45.758Z,19.27
2019-03-16T23:54:18.040Z,15.58
2019-03-16T23:56:50.622Z,20.65
2019-03-16T23:59:23.084Z,16.90
